Share

Randall, KS

Simpson KS (KKSBELOI5) Elev 1342 ft | 39.39 °N, 97.94 °W | Change Station

Current weather conditions updated 8 minutes ago

Overcast
Overcast
58.1 °F
Feels Like 58.1 °F
N
2.2
Wind Variable Wind from NNW
Sunrise 6:46 AM
Sunset 8:16 PM
Moon Waning Gibbous

Today is forecast to be Cooler than yesterday. A few morning showers.

Pressure 29.97 in
Visibility 10.0 miles
Clouds Overcast 10000 ft
Dew Point 58 °F
Humidity 98%
Rainfall 0.12 in
Snow Depth Not available.
UV 0 out of 16
Pollen 7.20 out of 12
Air Quality Not available.
Flu Activity No Activity
METAR KCNK 211255Z AUTO 08003KT 10SM OVC100 14/13 A2999 RMK AO2 SLP148 T01390133

More Conditions Fewer Conditions

Pressure 29.97 in
Visibility 10.0 miles
Clouds Overcast 10000 ft
Dew Point 58 °F
Humidity 98%
Rainfall 0.12 in
Snow Depth Not available.
UV 0 out of 16
Pollen 7.20 out of 12
Air Quality Not available.
Flu Activity No Activity
METAR KCNK 211255Z AUTO 08003KT 10SM OVC100 14/13 A2999 RMK AO2 SLP148 T01390133

More Conditions Fewer Conditions

10-Day Weather Forecast

Almanac

Astronomy

Apr. 21, 2014 Rise Set
Actual Time 6:46 AM CDT 8:16 PM CDT
Civil Twilight 6:18 AM CDT 8:44 PM CDT
Nautical Twilight 5:44 AM CDT 9:18 PM CDT
Astronomical Twilight 5:08 AM CDT 9:55 PM CDT
Moon 1:47 AM CDT 12:14 PM CDT
Length of Visible Light 14h 26m
Length of Day
13h 30m
Tomorrow will be 2m 24s longer.
Waning Gibbous, 59% of the Moon is Illuminated
Today
Waning Gibbous
Apr 22
Last Quarter
Apr 29
New
May 6
First Quarter
May 14
Full

Today's Extremes

State Highs State Lows

Community

  • Snowy Robin
    Snowy Robin
  • Sun Pillar and Geese
    Sun Pillar and Geese
  • Showers on the Way
    Showers on the Way
  • Easter Morning Fog
    Easter Morning Fog
  • Easter Dance
    Easter Dance

WunderPhotos

Upload Photos

1,703,616 photos uploaded!

Nearby

Snow Depth

Station Depth Elevation
No new snow has been reported.

Coastal Water Temperatures

Place Temperature
No Stations Reporting

Earthquake Activity

City Distance Mag. Time & Date
No recent earthquake activity has been reported nearby.
Minimum magnitude displayed is 2.5.

Nearby Weather Stations

Station Location Temp. Dew Point Humidity Wind Precip. Elev Updated Type
Simpson KS, Beloit, KS 58.1 °F 58 °F 98% NNW  at  2.2 mph - / hr 1342 ft 8:06 AM CDT Normal
Center Township, BELOIT, KS 56.9 °F 56 °F 95% WNW  at  4.0 mph 0.00 in / hr 1504 ft 8:15 AM CDT Normal
2 S of Pawnee, Courtland, KS 59.5 °F 56 °F 87% NW  at  16.1 mph 0.00 in / hr 1565 ft 8:15 AM CDT Rapid Fire
Joe's Place, Concordia, KS 59.0 °F 56 °F 90% SSW  at  0.0 mph 0.00 in / hr 1440 ft 8:15 AM CDT Rapid Fire

Show More Stations Show Fewer Stations

What do you think?

We're not finished. Please let us know what you like, what you don't like, and what you are still missing.